createdAt,value
2017-10-08T00:00:09.491Z,7.20
2017-10-08T00:02:43.460Z,7.77
2017-10-08T00:05:17.273Z,6.67
2017-10-08T00:07:51.786Z,8.55
2017-10-08T00:10:25.397Z,7.80
2017-10-08T00:12:59.014Z,8.47
2017-10-08T00:15:32.782Z,7.17
2017-10-08T00:18:06.584Z,8.03
2017-10-08T00:20:41.129Z,8.37
2017-10-08T00:23:14.894Z,8.10
2017-10-08T00:25:48.566Z,8.63
2017-10-08T00:28:22.178Z,8.10
2017-10-08T00:30:55.942Z,7.35
2017-10-08T03:44:41.846Z,6.33
2017-10-08T03:47:16.481Z,5.30
2017-10-08T03:49:50.096Z,6.17
2017-10-08T03:52:23.801Z,7.07
2017-10-08T03:54:57.544Z,7.30
2017-10-08T03:57:32.554Z,6.53
2017-10-08T04:00:07.772Z,7.93
2017-10-08T04:02:42.311Z,6.90
2017-10-08T04:05:16.650Z,7.43
2017-10-08T04:07:51.113Z,6.23
2017-10-08T04:10:25.206Z,6.93
2017-10-08T04:13:01.596Z,6.43
2017-10-08T04:15:35.396Z,5.43
2017-10-08T04:18:10.106Z,5.57
2017-10-08T04:20:44.049Z,6.60
2017-10-08T04:23:17.673Z,6.13
2017-10-08T04:25:51.459Z,6.00
2017-10-08T04:28:25.286Z,5.40
2017-10-08T04:30:59.683Z,6.10
2017-10-08T04:33:33.451Z,5.70
2017-10-08T04:36:07.290Z,6.27
2017-10-08T04:38:41.096Z,9.30
2017-10-08T04:41:14.865Z,5.27
2017-10-08T04:43:50.507Z,6.70
2017-10-08T04:46:24.291Z,5.17
2017-10-08T04:48:59.459Z,5.83
2017-10-08T04:51:38.979Z,5.20
2017-10-08T04:54:13.229Z,7.40
2017-10-08T04:56:49.281Z,5.20
2017-10-08T04:59:23.289Z,5.30
2017-10-08T05:01:58.002Z,5.63
2017-10-08T05:04:31.904Z,6.10
2017-10-08T05:07:05.626Z,5.87
2017-10-08T05:09:39.446Z,5.27
2017-10-08T05:12:13.128Z,6.07
2017-10-08T05:14:46.834Z,5.70
2017-10-08T05:17:20.602Z,6.07
2017-10-08T05:19:54.186Z,6.23
2017-10-08T05:22:27.839Z,5.03
2017-10-08T05:25:01.480Z,7.20
2017-10-08T05:27:35.417Z,6.87
2017-10-08T05:30:09.937Z,5.80
2017-10-08T05:32:43.729Z,5.10
2017-10-08T05:35:17.540Z,5.43
2017-10-08T05:37:51.270Z,6.10
2017-10-08T05:40:24.921Z,5.40
2017-10-08T05:42:58.605Z,6.53
2017-10-08T05:45:32.345Z,6.57
2017-10-08T05:48:06.061Z,5.67
2017-10-08T05:50:39.870Z,6.37
2017-10-08T05:53:13.578Z,6.23
2017-10-08T05:55:47.353Z,6.73
2017-10-08T05:58:21.183Z,8.10
2017-10-08T06:00:55.024Z,5.20
2017-10-08T06:03:30.041Z,7.30
2017-10-08T06:06:03.633Z,7.17
2017-10-08T06:08:37.337Z,5.40
2017-10-08T06:11:10.959Z,5.17
2017-10-08T06:13:45.461Z,5.00
2017-10-08T06:16:19.213Z,2.67
2017-10-08T06:18:52.881Z,2.57
2017-10-08T06:21:27.674Z,2.83
2017-10-08T06:24:01.357Z,2.35
2017-10-08T06:26:35.929Z,2.53
2017-10-08T06:29:10.519Z,3.72
2017-10-08T06:31:44.316Z,3.22
2017-10-08T06:34:18.066Z,3.00
2017-10-08T06:36:52.544Z,3.13
2017-10-08T06:39:26.346Z,3.00
2017-10-08T06:41:59.941Z,3.58
2017-10-08T06:44:33.731Z,2.77
2017-10-08T06:47:07.379Z,3.00
2017-10-08T06:49:41.081Z,2.30
2017-10-08T06:52:14.777Z,3.10
2017-10-08T06:54:48.670Z,1.90
2017-10-08T06:57:22.369Z,2.50
2017-10-08T06:59:56.129Z,2.20
2017-10-08T07:02:29.806Z,1.90
2017-10-08T07:05:03.578Z,1.77
2017-10-08T07:07:37.261Z,2.23
2017-10-08T07:10:12.111Z,1.90
2017-10-08T07:12:47.386Z,1.80
2017-10-08T07:15:21.257Z,2.20
2017-10-08T07:17:58.629Z,2.40
2017-10-08T07:20:34.160Z,1.50
2017-10-08T07:23:09.953Z,2.20
2017-10-08T07:25:45.681Z,2.53
2017-10-08T07:28:19.386Z,2.00
2017-10-08T07:30:53.169Z,1.60
2017-10-08T07:33:26.906Z,2.17
2017-10-08T07:36:01.508Z,1.83
2017-10-08T07:38:36.118Z,1.97
2017-10-08T07:41:10.572Z,1.90
2017-10-08T07:43:44.993Z,2.50
2017-10-08T07:46:18.765Z,1.93
2017-10-08T07:48:52.478Z,2.90
2017-10-08T07:51:27.821Z,2.50
2017-10-08T07:54:02.482Z,2.47
2017-10-08T07:56:36.077Z,1.67
2017-10-08T07:59:10.759Z,1.87
2017-10-08T08:01:44.338Z,2.27
2017-10-08T08:04:20.506Z,2.90
2017-10-08T08:06:55.057Z,2.30
2017-10-08T08:09:28.999Z,1.87
2017-10-08T08:12:04.326Z,2.20
2017-10-08T08:14:38.236Z,2.40
2017-10-08T08:17:12.038Z,1.83
2017-10-08T08:19:45.748Z,1.50
2017-10-08T08:22:19.499Z,2.40
2017-10-08T08:24:53.796Z,1.90
2017-10-08T08:27:27.525Z,1.87
2017-10-08T08:30:02.082Z,1.97
2017-10-08T08:32:35.706Z,2.00
2017-10-08T08:35:10.032Z,2.33
2017-10-08T08:37:43.761Z,1.80
2017-10-08T08:40:17.376Z,2.10
2017-10-08T08:42:51.113Z,2.43
2017-10-08T08:45:24.758Z,1.90
2017-10-08T08:47:58.501Z,2.30
2017-10-08T08:50:32.854Z,2.57
2017-10-08T08:53:06.610Z,2.00
2017-10-08T08:55:42.222Z,1.80
2017-10-08T08:58:17.894Z,1.63
2017-10-08T09:00:51.701Z,1.90
2017-10-08T09:03:25.467Z,1.97
2017-10-08T09:05:59.910Z,2.07
2017-10-08T09:08:33.538Z,2.00
2017-10-08T09:11:07.515Z,2.13
2017-10-08T09:13:41.237Z,2.37
2017-10-08T09:16:15.072Z,1.90
2017-10-08T09:18:49.622Z,2.77
2017-10-08T09:21:23.307Z,2.20
2017-10-08T09:23:57.945Z,1.63
2017-10-08T09:26:32.357Z,2.93
2017-10-08T09:29:06.367Z,3.00
2017-10-08T09:31:41.012Z,2.93
2017-10-08T09:34:14.730Z,2.10
2017-10-08T09:36:48.474Z,2.20
2017-10-08T09:39:22.306Z,2.87
2017-10-08T09:41:56.210Z,3.20
2017-10-08T09:44:29.924Z,2.20
2017-10-08T09:47:03.531Z,3.20
2017-10-08T09:49:37.337Z,2.57
2017-10-08T09:52:11.958Z,2.33
2017-10-08T09:54:45.688Z,2.17
2017-10-08T09:57:19.470Z,2.43
2017-10-08T09:59:54.021Z,3.43
2017-10-08T10:02:27.748Z,2.50
2017-10-08T10:05:01.791Z,3.70
2017-10-08T10:07:35.595Z,2.27
2017-10-08T10:10:09.443Z,3.27
2017-10-08T10:12:44.365Z,2.40
2017-10-08T10:15:18.938Z,2.80
2017-10-08T10:17:52.645Z,1.90
2017-10-08T10:20:26.417Z,3.07
2017-10-08T10:23:00.104Z,1.60
2017-10-08T10:25:33.868Z,2.93
2017-10-08T10:28:07.688Z,2.60
2017-10-08T10:30:43.010Z,2.43
2017-10-08T10:33:17.539Z,2.10
2017-10-08T10:35:51.337Z,3.43
2017-10-08T10:38:25.081Z,2.10
2017-10-08T10:40:58.993Z,1.80
2017-10-08T10:43:32.780Z,2.37
2017-10-08T10:46:06.461Z,2.13
2017-10-08T10:48:40.376Z,2.83
2017-10-08T10:51:14.110Z,1.70
2017-10-08T10:53:47.921Z,1.83
2017-10-08T10:56:21.725Z,2.00
2017-10-08T10:58:55.405Z,2.40
2017-10-08T11:01:31.361Z,2.50
2017-10-08T11:04:05.996Z,1.87
2017-10-08T11:06:40.054Z,1.97
2017-10-08T11:09:16.060Z,2.30
2017-10-08T11:11:49.778Z,1.87
2017-10-08T11:14:23.549Z,2.27
2017-10-08T11:16:59.740Z,2.03
2017-10-08T11:19:34.119Z,2.13
2017-10-08T11:22:07.862Z,2.17
2017-10-08T11:24:42.987Z,2.13
2017-10-08T11:27:17.649Z,1.97
2017-10-08T11:29:52.151Z,1.43
2017-10-08T11:32:25.957Z,4.13
2017-10-08T11:34:59.790Z,2.20
2017-10-08T11:37:35.473Z,2.20
2017-10-08T11:40:09.143Z,1.47
2017-10-08T11:42:43.479Z,2.57
2017-10-08T11:45:17.195Z,2.33
2017-10-08T11:47:51.098Z,2.50
2017-10-08T11:50:25.490Z,2.67
2017-10-08T11:52:59.269Z,2.93
2017-10-08T11:55:32.851Z,1.53
2017-10-08T11:58:07.325Z,2.27
2017-10-08T12:00:41.710Z,2.30
2017-10-08T12:03:15.584Z,2.53
2017-10-08T12:05:50.170Z,1.83
2017-10-08T12:08:23.898Z,2.20
2017-10-08T12:10:58.137Z,2.73
2017-10-08T12:13:37.934Z,2.60
2017-10-08T12:16:12.689Z,2.50
2017-10-08T12:18:50.986Z,1.90
2017-10-08T12:21:24.664Z,2.23
2017-10-08T12:23:59.749Z,2.60
2017-10-08T12:26:34.630Z,1.80
2017-10-08T12:29:08.784Z,2.23
2017-10-08T12:31:42.527Z,2.03
2017-10-08T12:34:16.276Z,2.10
2017-10-08T12:36:52.119Z,2.07
2017-10-08T12:39:26.144Z,2.30
2017-10-08T12:41:59.749Z,2.23
2017-10-08T12:44:33.658Z,1.70
2017-10-08T12:47:07.273Z,1.90
2017-10-08T12:49:41.068Z,2.37
2017-10-08T12:52:14.841Z,2.50
2017-10-08T12:54:48.713Z,2.13
2017-10-08T12:57:22.475Z,1.90
2017-10-08T12:59:56.185Z,2.60
2017-10-08T13:02:30.791Z,2.43
2017-10-08T13:05:05.461Z,1.90
2017-10-08T13:07:39.153Z,2.70
2017-10-08T13:10:12.939Z,1.97
2017-10-08T13:12:47.577Z,2.20
2017-10-08T13:15:21.293Z,1.97
2017-10-08T13:17:55.396Z,2.50
2017-10-08T13:20:29.092Z,1.60
2017-10-08T13:23:02.826Z,2.23
2017-10-08T13:25:36.589Z,1.67
2017-10-08T13:28:10.410Z,1.60
2017-10-08T13:30:44.249Z,2.17
2017-10-08T13:33:18.824Z,2.00
2017-10-08T13:35:52.651Z,2.80
2017-10-08T13:38:26.407Z,2.40
2017-10-08T13:41:00.134Z,1.77
2017-10-08T13:43:33.953Z,2.03
2017-10-08T13:46:07.720Z,2.57
2017-10-08T13:48:41.526Z,2.73
2017-10-08T13:51:15.260Z,2.27
2017-10-08T13:53:48.875Z,1.80
2017-10-08T13:56:22.640Z,3.30
2017-10-08T13:58:56.433Z,2.93
2017-10-08T14:01:30.773Z,2.50
2017-10-08T14:04:05.525Z,2.83
2017-10-08T14:06:39.279Z,2.30
2017-10-08T14:09:13.303Z,2.13
2017-10-08T14:11:47.518Z,1.90
2017-10-08T14:14:21.254Z,2.50
2017-10-08T14:16:55.050Z,2.20
2017-10-08T14:19:28.781Z,1.93
2017-10-08T14:22:02.561Z,2.53
2017-10-08T14:24:36.475Z,2.27
2017-10-08T14:27:10.173Z,2.10
2017-10-08T14:29:44.033Z,2.27
2017-10-08T14:32:17.876Z,2.47
2017-10-08T14:34:52.514Z,1.90
2017-10-08T14:37:26.241Z,2.67
2017-10-08T14:39:59.951Z,2.07
2017-10-08T14:42:33.731Z,3.03
2017-10-08T14:45:08.961Z,2.57
2017-10-08T14:47:42.632Z,2.17
2017-10-08T14:50:17.194Z,1.97
2017-10-08T14:52:51.005Z,2.50
2017-10-08T14:55:25.093Z,2.60
2017-10-08T14:57:58.882Z,2.10
2017-10-08T15:00:32.601Z,1.90
2017-10-08T15:03:06.358Z,1.83
2017-10-08T15:05:40.823Z,1.77
2017-10-08T15:08:14.632Z,2.13
2017-10-08T15:10:48.272Z,2.40
2017-10-08T15:13:23.444Z,3.07
2017-10-08T15:15:59.643Z,1.83
2017-10-08T15:18:33.198Z,1.70
2017-10-08T15:21:07.211Z,3.00
2017-10-08T15:23:40.810Z,2.10
2017-10-08T15:26:14.502Z,1.80
2017-10-08T15:28:48.304Z,3.77
2017-10-08T15:31:22.793Z,2.40
2017-10-08T15:33:57.371Z,2.70
2017-10-08T15:36:31.033Z,3.00
2017-10-08T15:39:04.749Z,2.67
2017-10-08T15:41:39.507Z,2.10
2017-10-08T15:44:13.186Z,2.33
2017-10-08T15:46:47.589Z,1.80
2017-10-08T15:49:21.345Z,2.57
2017-10-08T15:51:55.928Z,3.10
2017-10-08T15:54:29.537Z,2.40
2017-10-08T15:57:04.101Z,2.77
2017-10-08T15:59:38.499Z,2.60
2017-10-08T16:02:13.716Z,2.27
2017-10-08T16:04:47.450Z,2.17
2017-10-08T16:07:21.924Z,2.40
2017-10-08T16:09:55.689Z,2.40
2017-10-08T16:12:30.565Z,2.83
2017-10-08T16:15:04.332Z,2.33
2017-10-08T16:17:38.746Z,2.70
2017-10-08T16:20:12.548Z,3.07
2017-10-08T16:22:46.361Z,2.90
2017-10-08T16:25:21.111Z,2.77
2017-10-08T16:27:55.012Z,2.83
2017-10-08T16:30:29.822Z,3.00
2017-10-08T16:33:03.579Z,2.03
2017-10-08T16:35:37.703Z,3.20
2017-10-08T16:38:11.406Z,3.00
2017-10-08T16:40:46.929Z,3.90
2017-10-08T16:43:21.522Z,2.53
2017-10-08T16:45:55.069Z,3.00
2017-10-08T16:48:28.671Z,2.60
2017-10-08T16:51:07.778Z,2.83
2017-10-08T16:53:41.612Z,2.93
2017-10-08T16:56:18.254Z,3.60
2017-10-08T16:58:54.580Z,3.20
2017-10-08T17:01:29.074Z,2.80
2017-10-08T17:04:04.473Z,2.80
2017-10-08T17:06:38.084Z,3.60
2017-10-08T17:09:13.826Z,3.40
2017-10-08T17:11:48.313Z,3.55
2017-10-08T17:14:22.070Z,3.87
2017-10-08T17:16:57.224Z,5.78
2017-10-08T17:19:30.957Z,3.87
2017-10-08T17:22:04.845Z,3.80
2017-10-08T17:24:38.537Z,3.45
2017-10-08T17:27:12.401Z,4.20
2017-10-08T17:29:47.202Z,4.40
2017-10-08T17:32:20.969Z,4.10
2017-10-08T17:34:54.825Z,4.60
2017-10-08T17:37:28.574Z,4.70
2017-10-08T17:40:02.295Z,6.18
2017-10-08T17:42:36.087Z,5.80
2017-10-08T17:45:09.921Z,4.75
2017-10-08T17:47:43.569Z,5.20
2017-10-08T17:50:17.260Z,4.65
2017-10-08T17:52:50.866Z,4.55
2017-10-08T17:55:25.276Z,4.25
2017-10-08T17:57:59.065Z,4.25
2017-10-08T18:00:33.662Z,5.32
2017-10-08T18:03:07.584Z,5.25
2017-10-08T18:05:41.174Z,5.62
2017-10-08T18:08:21.112Z,4.82
2017-10-08T18:10:54.797Z,5.45
2017-10-08T18:13:28.421Z,4.90
2017-10-08T18:16:03.190Z,5.18
2017-10-08T18:18:36.893Z,5.50
2017-10-08T18:21:11.369Z,5.45
2017-10-08T18:23:45.734Z,5.40
2017-10-08T18:26:21.007Z,4.75
2017-10-08T18:28:54.633Z,5.00
2017-10-08T18:31:28.245Z,5.20
2017-10-08T18:34:02.159Z,4.90
2017-10-08T18:36:36.209Z,6.43
2017-10-08T18:39:09.978Z,5.30
2017-10-08T18:41:45.259Z,5.07
2017-10-08T18:44:19.021Z,5.10
2017-10-08T18:46:52.793Z,4.12
2017-10-08T18:49:26.523Z,4.25
2017-10-08T18:52:00.194Z,5.37
2017-10-08T18:54:33.970Z,5.80
2017-10-08T18:57:07.782Z,4.80
2017-10-08T18:59:42.126Z,4.35
2017-10-08T19:02:15.978Z,4.35
2017-10-08T19:04:50.433Z,5.30
2017-10-08T19:07:24.887Z,4.60
2017-10-08T19:10:09.931Z,5.30
2017-10-08T19:12:45.295Z,4.72
2017-10-08T19:15:18.865Z,5.55
2017-10-08T19:17:52.624Z,4.53
2017-10-08T19:20:26.318Z,3.60
2017-10-08T19:23:00.086Z,4.05
2017-10-08T19:25:33.872Z,4.25
2017-10-08T19:28:08.276Z,5.18
2017-10-08T19:30:42.134Z,4.55
2017-10-08T19:33:15.964Z,6.25
2017-10-08T19:35:49.871Z,4.62
2017-10-08T19:38:23.748Z,4.45
2017-10-08T19:40:57.402Z,4.00
2017-10-08T19:43:31.117Z,4.57
2017-10-08T19:46:05.641Z,3.85
2017-10-08T19:48:39.257Z,4.40
2017-10-08T19:51:13.821Z,4.97
2017-10-08T19:53:48.610Z,4.28
2017-10-08T19:56:22.274Z,4.93
2017-10-08T19:58:56.043Z,5.53
2017-10-08T20:01:30.065Z,4.25
2017-10-08T20:04:04.902Z,5.37
2017-10-08T20:06:38.991Z,6.37
2017-10-08T20:09:12.738Z,4.50
2017-10-08T20:11:48.167Z,4.40
2017-10-08T20:14:21.909Z,5.70
2017-10-08T20:16:56.270Z,4.60
2017-10-08T20:19:30.094Z,4.47
2017-10-08T20:22:03.942Z,3.97
2017-10-08T20:24:37.620Z,4.70
2017-10-08T20:27:11.421Z,4.60
2017-10-08T20:29:46.760Z,4.65
2017-10-08T20:32:21.075Z,4.12
2017-10-08T20:34:54.930Z,5.72
2017-10-08T20:37:28.818Z,4.72
2017-10-08T20:40:03.699Z,4.55
2017-10-08T20:42:37.714Z,4.82
2017-10-08T20:45:12.516Z,4.57
2017-10-08T20:47:46.324Z,4.37
2017-10-08T20:50:20.850Z,5.55
2017-10-08T20:52:54.674Z,5.43
2017-10-08T20:55:28.364Z,4.55
2017-10-08T20:58:02.091Z,4.93
2017-10-08T21:00:35.708Z,5.75
2017-10-08T21:03:09.317Z,4.57
2017-10-08T21:05:43.186Z,4.85
2017-10-08T21:08:17.679Z,4.22
2017-10-08T21:10:51.423Z,4.07
2017-10-08T21:13:25.677Z,5.43
2017-10-08T21:15:59.477Z,4.45
2017-10-08T21:18:33.266Z,4.93
2017-10-08T21:21:07.817Z,4.85
2017-10-08T21:23:41.492Z,4.47
2017-10-08T21:26:15.222Z,5.18
2017-10-08T21:28:49.546Z,4.45
2017-10-08T21:31:23.257Z,3.50
2017-10-08T21:33:57.857Z,3.95
2017-10-08T21:36:31.614Z,5.25
2017-10-08T21:39:06.097Z,3.60
2017-10-08T21:41:40.572Z,4.28
2017-10-08T21:44:15.100Z,4.15
2017-10-08T21:46:49.082Z,4.30
2017-10-08T21:49:24.383Z,4.65
2017-10-08T21:51:59.831Z,3.80
2017-10-08T21:54:33.671Z,4.05
2017-10-08T21:57:09.667Z,4.32
2017-10-08T21:59:43.425Z,4.97
2017-10-08T22:02:17.225Z,4.72
2017-10-08T22:04:50.993Z,5.00
2017-10-08T22:07:25.659Z,5.60
2017-10-08T22:09:59.436Z,4.75
2017-10-08T22:12:33.141Z,4.87
2017-10-08T22:15:07.665Z,3.90
2017-10-08T22:17:42.332Z,5.30
2017-10-08T22:20:15.958Z,4.95
2017-10-08T22:22:50.629Z,5.32
2017-10-08T22:25:24.701Z,4.35
2017-10-08T22:27:58.349Z,4.68
2017-10-08T22:30:32.017Z,4.78
2017-10-08T22:33:06.486Z,4.70
2017-10-08T22:35:40.896Z,3.90
2017-10-08T22:38:14.537Z,5.70
2017-10-08T22:40:48.318Z,5.12
2017-10-08T22:43:22.934Z,4.85
2017-10-08T22:45:57.322Z,4.30
2017-10-08T22:48:31.885Z,4.50
2017-10-08T22:51:05.730Z,4.70
2017-10-08T22:53:40.063Z,5.18
2017-10-08T22:56:13.642Z,3.95
2017-10-08T22:58:47.498Z,5.22
2017-10-08T23:01:22.114Z,4.32
2017-10-08T23:03:56.486Z,4.53
2017-10-08T23:06:30.094Z,4.10
2017-10-08T23:09:03.853Z,4.53
2017-10-08T23:11:37.602Z,4.28
2017-10-08T23:14:12.402Z,5.15
2017-10-08T23:16:46.178Z,4.82
2017-10-08T23:19:19.820Z,4.57
2017-10-08T23:21:53.677Z,3.80
2017-10-08T23:24:28.208Z,4.15
2017-10-08T23:27:02.534Z,4.90
2017-10-08T23:29:36.390Z,4.80
2017-10-08T23:32:09.998Z,4.68
2017-10-08T23:34:43.813Z,3.75
2017-10-08T23:37:17.515Z,4.05
2017-10-08T23:39:51.262Z,4.05
2017-10-08T23:42:24.998Z,4.57
2017-10-08T23:44:58.675Z,4.12
2017-10-08T23:47:32.859Z,3.87
2017-10-08T23:50:06.629Z,3.70
2017-10-08T23:52:40.946Z,4.37
2017-10-08T23:55:15.328Z,4.65
2017-10-08T23:57:49.699Z,3.83
